sensor_id;sensor_type;location;lat;lon;timestamp;temperature;humidity
17992;DHT22;9121;50.926;5.340;2023-09-19T00:00:56;17.00;99.90
17992;DHT22;9121;50.926;5.340;2023-09-19T00:03:23;17.00;99.90
17992;DHT22;9121;50.926;5.340;2023-09-19T00:05:52;17.00;99.90
17992;DHT22;9121;50.926;5.340;2023-09-19T00:08:21;17.00;99.90
17992;DHT22;9121;50.926;5.340;2023-09-19T00:10:50;17.00;99.90
17992;DHT22;9121;50.926;5.340;2023-09-19T00:13:19;17.00;99.90
17992;DHT22;9121;50.926;5.340;2023-09-19T00:15:47;17.00;99.90
17992;DHT22;9121;50.926;5.340;2023-09-19T00:18:15;16.90;99.90
17992;DHT22;9121;50.926;5.340;2023-09-19T00:20:43;16.90;99.90
17992;DHT22;9121;50.926;5.340;2023-09-19T00:23:14;16.90;99.90
17992;DHT22;9121;50.926;5.340;2023-09-19T00:25:42;16.90;99.90
17992;DHT22;9121;50.926;5.340;2023-09-19T00:28:09;16.90;99.90
17992;DHT22;9121;50.926;5.340;2023-09-19T00:30:37;16.90;99.90
17992;DHT22;9121;50.926;5.340;2023-09-19T00:33:04;16.80;99.90
17992;DHT22;9121;50.926;5.340;2023-09-19T00:35:33;16.80;99.90
17992;DHT22;9121;50.926;5.340;2023-09-19T00:38:00;16.80;99.90
17992;DHT22;9121;50.926;5.340;2023-09-19T00:40:30;16.80;99.90
17992;DHT22;9121;50.926;5.340;2023-09-19T00:42:58;16.80;99.90
17992;DHT22;9121;50.926;5.340;2023-09-19T00:45:26;16.90;99.90
17992;DHT22;9121;50.926;5.340;2023-09-19T00:47:54;16.90;99.90
17992;DHT22;9121;50.926;5.340;2023-09-19T00:50:24;16.90;99.90
17992;DHT22;9121;50.926;5.340;2023-09-19T00:52:54;16.90;99.90
17992;DHT22;9121;50.926;5.340;2023-09-19T00:55:24;16.90;99.90
17992;DHT22;9121;50.926;5.340;2023-09-19T00:57:52;16.90;99.90
17992;DHT22;9121;50.926;5.340;2023-09-19T01:00:22;16.80;99.90
17992;DHT22;9121;50.926;5.340;2023-09-19T01:02:49;16.80;99.90
17992;DHT22;9121;50.926;5.340;2023-09-19T01:05:16;16.80;99.90
17992;DHT22;9121;50.926;5.340;2023-09-19T01:07:44;16.80;99.90
17992;DHT22;9121;50.926;5.340;2023-09-19T01:10:13;16.70;99.90
17992;DHT22;9121;50.926;5.340;2023-09-19T01:12:48;16.80;99.90
17992;DHT22;9121;50.926;5.340;2023-09-19T01:15:22;16.80;99.90
17992;DHT22;9121;50.926;5.340;2023-09-19T01:17:57;16.80;99.90
17992;DHT22;9121;50.926;5.340;2023-09-19T01:20:36;16.70;99.90
17992;DHT22;9121;50.926;5.340;2023-09-19T01:23:14;16.70;99.90
17992;DHT22;9121;50.926;5.340;2023-09-19T01:26:06;16.70;99.90
17992;DHT22;9121;50.926;5.340;2023-09-19T01:28:48;16.70;99.90
17992;DHT22;9121;50.926;5.340;2023-09-19T01:31:21;16.70;99.90
17992;DHT22;9121;50.926;5.340;2023-09-19T01:33:58;16.60;99.90
17992;DHT22;9121;50.926;5.340;2023-09-19T01:36:27;16.50;99.90
17992;DHT22;9121;50.926;5.340;2023-09-19T01:38:54;16.50;99.90
17992;DHT22;9121;50.926;5.340;2023-09-19T01:41:37;16.60;99.90
17992;DHT22;9121;50.926;5.340;2023-09-19T01:44:07;16.50;99.90
17992;DHT22;9121;50.926;5.340;2023-09-19T01:46:40;16.50;99.90
17992;DHT22;9121;50.926;5.340;2023-09-19T01:49:18;16.50;99.90
17992;DHT22;9121;50.926;5.340;2023-09-19T01:51:56;16.50;99.90
17992;DHT22;9121;50.926;5.340;2023-09-19T01:54:27;16.50;99.90
17992;DHT22;9121;50.926;5.340;2023-09-19T01:57:01;16.40;99.90
17992;DHT22;9121;50.926;5.340;2023-09-19T01:59:35;16.50;99.90
17992;DHT22;9121;50.926;5.340;2023-09-19T02:02:07;16.50;99.90
17992;DHT22;9121;50.926;5.340;2023-09-19T02:04:36;16.40;99.90
17992;DHT22;9121;50.926;5.340;2023-09-19T02:07:03;16.30;99.90
17992;DHT22;9121;50.926;5.340;2023-09-19T02:09:34;16.30;99.90
17992;DHT22;9121;50.926;5.340;2023-09-19T02:12:04;16.20;99.90
17992;DHT22;9121;50.926;5.340;2023-09-19T02:14:31;16.20;99.90
17992;DHT22;9121;50.926;5.340;2023-09-19T02:16:58;16.20;99.90
17992;DHT22;9121;50.926;5.340;2023-09-19T02:19:27;16.20;99.90
17992;DHT22;9121;50.926;5.340;2023-09-19T02:21:55;16.10;99.90
17992;DHT22;9121;50.926;5.340;2023-09-19T02:24:22;16.10;99.90
17992;DHT22;9121;50.926;5.340;2023-09-19T02:26:52;16.20;99.90
17992;DHT22;9121;50.926;5.340;2023-09-19T02:29:20;16.10;99.90
17992;DHT22;9121;50.926;5.340;2023-09-19T02:31:47;16.10;99.90
17992;DHT22;9121;50.926;5.340;2023-09-19T02:34:14;16.10;99.90
17992;DHT22;9121;50.926;5.340;2023-09-19T02:36:43;16.10;99.90
17992;DHT22;9121;50.926;5.340;2023-09-19T02:39:11;16.00;99.90
17992;DHT22;9121;50.926;5.340;2023-09-19T02:41:38;16.00;99.90
17992;DHT22;9121;50.926;5.340;2023-09-19T02:44:07;16.10;99.90
17992;DHT22;9121;50.926;5.340;2023-09-19T02:46:34;16.10;99.90
17992;DHT22;9121;50.926;5.340;2023-09-19T02:49:02;16.10;99.90
17992;DHT22;9121;50.926;5.340;2023-09-19T02:51:30;16.10;99.90
17992;DHT22;9121;50.926;5.340;2023-09-19T02:53:59;16.10;99.90
17992;DHT22;9121;50.926;5.340;2023-09-19T02:56:26;16.10;99.90
17992;DHT22;9121;50.926;5.340;2023-09-19T02:58:53;16.00;99.90
17992;DHT22;9121;50.926;5.340;2023-09-19T03:01:21;16.10;99.90
17992;DHT22;9121;50.926;5.340;2023-09-19T03:03:48;16.00;99.90
17992;DHT22;9121;50.926;5.340;2023-09-19T03:06:15;16.00;99.90
17992;DHT22;9121;50.926;5.340;2023-09-19T03:08:45;15.90;99.90
17992;DHT22;9121;50.926;5.340;2023-09-19T03:11:15;15.90;99.90
17992;DHT22;9121;50.926;5.340;2023-09-19T03:13:50;15.90;99.90
17992;DHT22;9121;50.926;5.340;2023-09-19T03:16:17;15.80;99.90
17992;DHT22;9121;50.926;5.340;2023-09-19T03:18:47;15.80;99.90
17992;DHT22;9121;50.926;5.340;2023-09-19T03:21:15;15.80;99.90
17992;DHT22;9121;50.926;5.340;2023-09-19T03:23:43;15.80;99.90
17992;DHT22;9121;50.926;5.340;2023-09-19T03:26:11;15.90;99.90
17992;DHT22;9121;50.926;5.340;2023-09-19T03:28:41;15.80;99.90
17992;DHT22;9121;50.926;5.340;2023-09-19T03:31:09;15.80;99.90
17992;DHT22;9121;50.926;5.340;2023-09-19T03:33:36;15.80;99.90
17992;DHT22;9121;50.926;5.340;2023-09-19T03:36:04;15.70;99.90
17992;DHT22;9121;50.926;5.340;2023-09-19T03:38:31;15.80;99.90
17992;DHT22;9121;50.926;5.340;2023-09-19T03:41:00;15.80;99.90
17992;DHT22;9121;50.926;5.340;2023-09-19T03:43:26;15.80;99.90
17992;DHT22;9121;50.926;5.340;2023-09-19T03:45:55;15.90;99.90
17992;DHT22;9121;50.926;5.340;2023-09-19T03:48:23;15.80;99.90
17992;DHT22;9121;50.926;5.340;2023-09-19T03:50:50;15.90;99.90
17992;DHT22;9121;50.926;5.340;2023-09-19T03:53:18;15.80;99.90
17992;DHT22;9121;50.926;5.340;2023-09-19T03:55:45;15.90;99.90
17992;DHT22;9121;50.926;5.340;2023-09-19T03:58:12;15.80;99.90
17992;DHT22;9121;50.926;5.340;2023-09-19T04:00:39;15.80;99.90
17992;DHT22;9121;50.926;5.340;2023-09-19T04:03:08;15.80;99.90
17992;DHT22;9121;50.926;5.340;2023-09-19T04:05:44;15.80;99.90
17992;DHT22;9121;50.926;5.340;2023-09-19T04:08:11;15.70;99.90
17992;DHT22;9121;50.926;5.340;2023-09-19T04:10:38;15.70;99.90
17992;DHT22;9121;50.926;5.340;2023-09-19T04:13:05;15.70;99.90
17992;DHT22;9121;50.926;5.340;2023-09-19T04:15:32;15.80;99.90
17992;DHT22;9121;50.926;5.340;2023-09-19T04:17:59;15.90;99.90
17992;DHT22;9121;50.926;5.340;2023-09-19T04:20:28;15.80;99.90
17992;DHT22;9121;50.926;5.340;2023-09-19T04:22:54;15.90;99.90
17992;DHT22;9121;50.926;5.340;2023-09-19T04:25:22;15.90;99.90
17992;DHT22;9121;50.926;5.340;2023-09-19T04:27:49;15.90;99.90
17992;DHT22;9121;50.926;5.340;2023-09-19T04:30:16;16.00;99.90
17992;DHT22;9121;50.926;5.340;2023-09-19T04:32:43;16.00;99.90
17992;DHT22;9121;50.926;5.340;2023-09-19T04:35:10;15.90;99.90
17992;DHT22;9121;50.926;5.340;2023-09-19T04:37:40;16.00;99.90
17992;DHT22;9121;50.926;5.340;2023-09-19T04:40:08;16.10;99.90
17992;DHT22;9121;50.926;5.340;2023-09-19T04:42:39;16.10;99.90
17992;DHT22;9121;50.926;5.340;2023-09-19T04:45:07;16.10;99.90
17992;DHT22;9121;50.926;5.340;2023-09-19T04:47:35;16.10;99.90
17992;DHT22;9121;50.926;5.340;2023-09-19T04:50:06;16.00;99.90
17992;DHT22;9121;50.926;5.340;2023-09-19T04:52:40;15.90;99.90
17992;DHT22;9121;50.926;5.340;2023-09-19T04:55:10;16.00;99.90
17992;DHT22;9121;50.926;5.340;2023-09-19T04:57:39;15.90;99.90
17992;DHT22;9121;50.926;5.340;2023-09-19T05:00:07;15.80;99.90
17992;DHT22;9121;50.926;5.340;2023-09-19T05:02:38;15.80;99.90
17992;DHT22;9121;50.926;5.340;2023-09-19T05:05:07;15.80;99.90
17992;DHT22;9121;50.926;5.340;2023-09-19T05:07:35;15.70;99.90
17992;DHT22;9121;50.926;5.340;2023-09-19T05:10:03;15.70;99.90
17992;DHT22;9121;50.926;5.340;2023-09-19T05:12:33;15.70;99.90
17992;DHT22;9121;50.926;5.340;2023-09-19T05:15:01;15.70;99.90
17992;DHT22;9121;50.926;5.340;2023-09-19T05:17:29;15.70;99.90
17992;DHT22;9121;50.926;5.340;2023-09-19T05:19:56;15.70;99.90
17992;DHT22;9121;50.926;5.340;2023-09-19T05:22:23;15.70;99.90
17992;DHT22;9121;50.926;5.340;2023-09-19T05:24:51;15.60;99.90
17992;DHT22;9121;50.926;5.340;2023-09-19T05:27:20;15.60;99.90
17992;DHT22;9121;50.926;5.340;2023-09-19T05:29:47;15.60;99.90
17992;DHT22;9121;50.926;5.340;2023-09-19T05:32:16;15.50;99.90
17992;DHT22;9121;50.926;5.340;2023-09-19T05:34:43;15.60;99.90
17992;DHT22;9121;50.926;5.340;2023-09-19T05:37:10;15.60;99.90
17992;DHT22;9121;50.926;5.340;2023-09-19T05:39:37;15.50;99.90
17992;DHT22;9121;50.926;5.340;2023-09-19T05:42:04;15.50;99.90
17992;DHT22;9121;50.926;5.340;2023-09-19T05:44:35;15.50;99.90
17992;DHT22;9121;50.926;5.340;2023-09-19T05:47:02;15.40;99.90
17992;DHT22;9121;50.926;5.340;2023-09-19T05:49:29;15.50;99.90
17992;DHT22;9121;50.926;5.340;2023-09-19T05:51:56;15.50;99.90
17992;DHT22;9121;50.926;5.340;2023-09-19T05:54:24;15.40;99.90
17992;DHT22;9121;50.926;5.340;2023-09-19T05:56:51;15.40;99.90
17992;DHT22;9121;50.926;5.340;2023-09-19T05:59:18;15.50;99.90
17992;DHT22;9121;50.926;5.340;2023-09-19T06:01:47;15.50;99.90
17992;DHT22;9121;50.926;5.340;2023-09-19T06:04:14;15.50;99.90
17992;DHT22;9121;50.926;5.340;2023-09-19T06:06:41;15.50;99.90
17992;DHT22;9121;50.926;5.340;2023-09-19T06:09:08;15.50;99.90
17992;DHT22;9121;50.926;5.340;2023-09-19T06:11:35;15.50;99.90
17992;DHT22;9121;50.926;5.340;2023-09-19T06:14:03;15.50;99.90
17992;DHT22;9121;50.926;5.340;2023-09-19T06:16:31;15.60;99.90
17992;DHT22;9121;50.926;5.340;2023-09-19T06:19:00;15.50;99.90
17992;DHT22;9121;50.926;5.340;2023-09-19T06:21:27;15.50;99.90
17992;DHT22;9121;50.926;5.340;2023-09-19T06:23:54;15.60;99.90
17992;DHT22;9121;50.926;5.340;2023-09-19T06:26:21;15.70;99.90
17992;DHT22;9121;50.926;5.340;2023-09-19T06:28:49;15.60;99.90
17992;DHT22;9121;50.926;5.340;2023-09-19T06:31:16;15.70;99.90
17992;DHT22;9121;50.926;5.340;2023-09-19T06:33:43;15.70;99.90
17992;DHT22;9121;50.926;5.340;2023-09-19T06:36:12;15.60;99.90
17992;DHT22;9121;50.926;5.340;2023-09-19T06:38:39;15.70;99.90
17992;DHT22;9121;50.926;5.340;2023-09-19T06:41:06;15.70;99.90
17992;DHT22;9121;50.926;5.340;2023-09-19T06:43:34;15.80;99.90
17992;DHT22;9121;50.926;5.340;2023-09-19T06:46:01;15.80;99.90
17992;DHT22;9121;50.926;5.340;2023-09-19T06:48:29;15.80;99.90
17992;DHT22;9121;50.926;5.340;2023-09-19T06:50:56;15.80;99.90
17992;DHT22;9121;50.926;5.340;2023-09-19T06:53:31;15.90;99.90
17992;DHT22;9121;50.926;5.340;2023-09-19T06:56:00;16.00;99.90
17992;DHT22;9121;50.926;5.340;2023-09-19T06:58:27;16.00;99.90
17992;DHT22;9121;50.926;5.340;2023-09-19T07:00:54;16.10;99.90
17992;DHT22;9121;50.926;5.340;2023-09-19T07:03:22;16.20;99.90
17992;DHT22;9121;50.926;5.340;2023-09-19T07:05:52;16.30;99.90
17992;DHT22;9121;50.926;5.340;2023-09-19T07:08:21;16.30;99.90
17992;DHT22;9121;50.926;5.340;2023-09-19T07:10:50;16.40;99.90
17992;DHT22;9121;50.926;5.340;2023-09-19T07:13:18;16.50;99.90
17992;DHT22;9121;50.926;5.340;2023-09-19T07:15:45;16.40;99.90
17992;DHT22;9121;50.926;5.340;2023-09-19T07:18:16;16.40;99.90
17992;DHT22;9121;50.926;5.340;2023-09-19T07:20:43;16.50;99.90
17992;DHT22;9121;50.926;5.340;2023-09-19T07:23:15;16.50;99.90
17992;DHT22;9121;50.926;5.340;2023-09-19T07:25:43;16.50;99.90
17992;DHT22;9121;50.926;5.340;2023-09-19T07:28:13;16.40;99.90
17992;DHT22;9121;50.926;5.340;2023-09-19T07:30:40;16.50;99.90
17992;DHT22;9121;50.926;5.340;2023-09-19T07:33:07;16.50;99.90
17992;DHT22;9121;50.926;5.340;2023-09-19T07:35:37;16.60;99.90
17992;DHT22;9121;50.926;5.340;2023-09-19T07:38:05;16.60;99.90
17992;DHT22;9121;50.926;5.340;2023-09-19T07:40:33;16.70;99.90
17992;DHT22;9121;50.926;5.340;2023-09-19T07:43:00;16.60;99.90
17992;DHT22;9121;50.926;5.340;2023-09-19T07:45:31;16.80;99.90
17992;DHT22;9121;50.926;5.340;2023-09-19T07:47:58;16.80;99.90
17992;DHT22;9121;50.926;5.340;2023-09-19T07:50:27;16.80;99.90
17992;DHT22;9121;50.926;5.340;2023-09-19T07:52:54;16.80;99.90
17992;DHT22;9121;50.926;5.340;2023-09-19T07:55:22;16.90;99.90
17992;DHT22;9121;50.926;5.340;2023-09-19T07:57:51;16.90;99.90
17992;DHT22;9121;50.926;5.340;2023-09-19T08:00:18;16.90;99.90
17992;DHT22;9121;50.926;5.340;2023-09-19T08:02:47;17.00;99.90
17992;DHT22;9121;50.926;5.340;2023-09-19T08:05:14;17.00;99.90
17992;DHT22;9121;50.926;5.340;2023-09-19T08:07:43;17.00;99.90
17992;DHT22;9121;50.926;5.340;2023-09-19T08:10:14;17.00;99.90
17992;DHT22;9121;50.926;5.340;2023-09-19T08:12:42;17.00;99.90
17992;DHT22;9121;50.926;5.340;2023-09-19T08:15:12;17.00;99.90
17992;DHT22;9121;50.926;5.340;2023-09-19T08:17:40;17.10;99.90
17992;DHT22;9121;50.926;5.340;2023-09-19T08:20:10;17.20;99.90
17992;DHT22;9121;50.926;5.340;2023-09-19T08:22:43;17.20;99.90
17992;DHT22;9121;50.926;5.340;2023-09-19T08:25:12;17.40;99.90
17992;DHT22;9121;50.926;5.340;2023-09-19T08:27:39;17.50;99.90
17992;DHT22;9121;50.926;5.340;2023-09-19T08:30:07;17.60;99.90
17992;DHT22;9121;50.926;5.340;2023-09-19T08:32:34;17.60;99.90
17992;DHT22;9121;50.926;5.340;2023-09-19T08:35:01;17.80;99.90
17992;DHT22;9121;50.926;5.340;2023-09-19T08:37:31;17.80;99.90
17992;DHT22;9121;50.926;5.340;2023-09-19T08:39:58;17.60;99.90
17992;DHT22;9121;50.926;5.340;2023-09-19T08:42:25;17.60;99.90
17992;DHT22;9121;50.926;5.340;2023-09-19T08:44:52;17.60;99.90
17992;DHT22;9121;50.926;5.340;2023-09-19T08:47:26;17.80;99.90
17992;DHT22;9121;50.926;5.340;2023-09-19T08:50:01;17.90;99.90
17992;DHT22;9121;50.926;5.340;2023-09-19T08:52:43;18.00;99.90
17992;DHT22;9121;50.926;5.340;2023-09-19T08:55:12;18.10;99.90
17992;DHT22;9121;50.926;5.340;2023-09-19T08:57:46;18.20;99.90
17992;DHT22;9121;50.926;5.340;2023-09-19T09:00:15;18.20;99.90
17992;DHT22;9121;50.926;5.340;2023-09-19T09:02:44;18.30;99.90
17992;DHT22;9121;50.926;5.340;2023-09-19T09:05:12;18.30;99.90
17992;DHT22;9121;50.926;5.340;2023-09-19T09:07:43;18.30;99.90
17992;DHT22;9121;50.926;5.340;2023-09-19T09:10:11;18.20;99.90
17992;DHT22;9121;50.926;5.340;2023-09-19T09:12:38;18.20;99.90
17992;DHT22;9121;50.926;5.340;2023-09-19T09:15:07;18.30;99.90
17992;DHT22;9121;50.926;5.340;2023-09-19T09:17:37;19.10;99.90
17992;DHT22;9121;50.926;5.340;2023-09-19T09:20:05;19.90;99.90
17992;DHT22;9121;50.926;5.340;2023-09-19T09:22:34;20.20;99.90
17992;DHT22;9121;50.926;5.340;2023-09-19T09:25:03;20.30;99.90
17992;DHT22;9121;50.926;5.340;2023-09-19T09:27:31;20.10;99.90
17992;DHT22;9121;50.926;5.340;2023-09-19T09:29:58;19.90;99.90
17992;DHT22;9121;50.926;5.340;2023-09-19T09:32:26;19.80;99.90
17992;DHT22;9121;50.926;5.340;2023-09-19T09:34:55;19.70;99.90
17992;DHT22;9121;50.926;5.340;2023-09-19T09:37:23;19.70;99.90
17992;DHT22;9121;50.926;5.340;2023-09-19T09:39:54;19.70;99.90
17992;DHT22;9121;50.926;5.340;2023-09-19T09:42:32;19.60;99.90
17992;DHT22;9121;50.926;5.340;2023-09-19T09:45:14;19.90;99.90
17992;DHT22;9121;50.926;5.340;2023-09-19T09:47:42;19.80;99.90
17992;DHT22;9121;50.926;5.340;2023-09-19T09:50:26;19.90;99.90
17992;DHT22;9121;50.926;5.340;2023-09-19T09:53:22;20.00;99.90
17992;DHT22;9121;50.926;5.340;2023-09-19T09:56:01;19.60;99.90
17992;DHT22;9121;50.926;5.340;2023-09-19T09:58:33;19.40;99.90
17992;DHT22;9121;50.926;5.340;2023-09-19T10:01:01;19.50;99.90
17992;DHT22;9121;50.926;5.340;2023-09-19T10:03:35;19.60;99.90
17992;DHT22;9121;50.926;5.340;2023-09-19T10:06:10;19.80;99.90
17992;DHT22;9121;50.926;5.340;2023-09-19T10:09:05;19.70;99.90
17992;DHT22;9121;50.926;5.340;2023-09-19T10:11:42;19.60;99.90
17992;DHT22;9121;50.926;5.340;2023-09-19T10:14:12;19.50;99.90
17992;DHT22;9121;50.926;5.340;2023-09-19T10:16:46;19.30;99.90
17992;DHT22;9121;50.926;5.340;2023-09-19T10:19:17;19.30;99.90
17992;DHT22;9121;50.926;5.340;2023-09-19T10:21:48;19.30;99.90
17992;DHT22;9121;50.926;5.340;2023-09-19T10:24:18;19.30;99.90
17992;DHT22;9121;50.926;5.340;2023-09-19T10:26:45;19.40;99.90
17992;DHT22;9121;50.926;5.340;2023-09-19T10:29:18;19.40;99.90
17992;DHT22;9121;50.926;5.340;2023-09-19T10:31:47;19.60;99.90
17992;DHT22;9121;50.926;5.340;2023-09-19T10:34:17;19.60;99.90
17992;DHT22;9121;50.926;5.340;2023-09-19T10:36:45;19.70;99.90
17992;DHT22;9121;50.926;5.340;2023-09-19T10:39:15;19.60;99.90
17992;DHT22;9121;50.926;5.340;2023-09-19T10:41:50;19.60;99.90
17992;DHT22;9121;50.926;5.340;2023-09-19T10:44:23;19.70;99.90
17992;DHT22;9121;50.926;5.340;2023-09-19T10:46:52;19.70;99.90
17992;DHT22;9121;50.926;5.340;2023-09-19T10:49:19;19.80;99.90
17992;DHT22;9121;50.926;5.340;2023-09-19T10:51:48;19.90;99.90
17992;DHT22;9121;50.926;5.340;2023-09-19T10:54:18;19.90;99.90
17992;DHT22;9121;50.926;5.340;2023-09-19T10:56:48;19.90;99.90
17992;DHT22;9121;50.926;5.340;2023-09-19T10:59:17;20.00;99.90
17992;DHT22;9121;50.926;5.340;2023-09-19T11:01:47;20.00;99.90
17992;DHT22;9121;50.926;5.340;2023-09-19T11:04:24;20.10;99.90
17992;DHT22;9121;50.926;5.340;2023-09-19T11:07:01;20.40;99.90
17992;DHT22;9121;50.926;5.340;2023-09-19T11:09:43;20.50;99.90
17992;DHT22;9121;50.926;5.340;2023-09-19T11:12:11;20.60;99.90
17992;DHT22;9121;50.926;5.340;2023-09-19T11:14:42;20.40;99.90
17992;DHT22;9121;50.926;5.340;2023-09-19T11:17:41;20.40;99.90
17992;DHT22;9121;50.926;5.340;2023-09-19T11:20:24;20.40;99.90
17992;DHT22;9121;50.926;5.340;2023-09-19T11:23:20;20.50;99.90
17992;DHT22;9121;50.926;5.340;2023-09-19T11:25:54;20.40;99.90
17992;DHT22;9121;50.926;5.340;2023-09-19T11:28:35;20.40;99.90
17992;DHT22;9121;50.926;5.340;2023-09-19T11:34:39;20.40;99.90
17992;DHT22;9121;50.926;5.340;2023-09-19T11:40:11;20.70;99.90
17992;DHT22;9121;50.926;5.340;2023-09-19T11:42:42;20.80;99.90
17992;DHT22;9121;50.926;5.340;2023-09-19T11:48:13;20.70;99.90
17992;DHT22;9121;50.926;5.340;2023-09-19T11:50:43;20.70;99.90
17992;DHT22;9121;50.926;5.340;2023-09-19T11:53:13;20.90;99.90
17992;DHT22;9121;50.926;5.340;2023-09-19T11:55:42;20.80;99.90
17992;DHT22;9121;50.926;5.340;2023-09-19T11:58:09;20.70;99.90
17992;DHT22;9121;50.926;5.340;2023-09-19T12:00:39;20.90;99.90
17992;DHT22;9121;50.926;5.340;2023-09-19T12:03:10;21.10;99.90
17992;DHT22;9121;50.926;5.340;2023-09-19T12:05:39;21.20;99.90
17992;DHT22;9121;50.926;5.340;2023-09-19T12:08:08;21.50;99.90
17992;DHT22;9121;50.926;5.340;2023-09-19T12:10:45;21.60;99.90
17992;DHT22;9121;50.926;5.340;2023-09-19T12:13:16;22.00;99.90
17992;DHT22;9121;50.926;5.340;2023-09-19T12:15:43;22.50;99.90
17992;DHT22;9121;50.926;5.340;2023-09-19T12:18:26;22.70;99.90
17992;DHT22;9121;50.926;5.340;2023-09-19T12:20:54;23.20;99.90
17992;DHT22;9121;50.926;5.340;2023-09-19T12:23:23;23.60;99.90
17992;DHT22;9121;50.926;5.340;2023-09-19T12:25:51;23.60;99.90
17992;DHT22;9121;50.926;5.340;2023-09-19T12:28:22;23.10;99.90
17992;DHT22;9121;50.926;5.340;2023-09-19T12:30:52;23.00;99.90
17992;DHT22;9121;50.926;5.340;2023-09-19T12:33:21;22.70;99.90
17992;DHT22;9121;50.926;5.340;2023-09-19T12:35:51;22.90;99.90
17992;DHT22;9121;50.926;5.340;2023-09-19T12:38:25;23.10;99.90
17992;DHT22;9121;50.926;5.340;2023-09-19T12:40:55;23.10;99.90
17992;DHT22;9121;50.926;5.340;2023-09-19T12:43:23;22.80;99.90
17992;DHT22;9121;50.926;5.340;2023-09-19T12:45:50;22.70;99.90
17992;DHT22;9121;50.926;5.340;2023-09-19T12:48:20;22.80;99.90
17992;DHT22;9121;50.926;5.340;2023-09-19T12:51:04;23.00;99.90
17992;DHT22;9121;50.926;5.340;2023-09-19T12:53:35;23.00;99.90
17992;DHT22;9121;50.926;5.340;2023-09-19T12:56:06;22.70;99.90
17992;DHT22;9121;50.926;5.340;2023-09-19T12:58:47;22.40;99.90
17992;DHT22;9121;50.926;5.340;2023-09-19T13:01:14;22.30;99.90
17992;DHT22;9121;50.926;5.340;2023-09-19T13:03:42;21.90;99.90
17992;DHT22;9121;50.926;5.340;2023-09-19T13:06:08;21.70;99.90
17992;DHT22;9121;50.926;5.340;2023-09-19T13:08:38;21.80;99.90
17992;DHT22;9121;50.926;5.340;2023-09-19T13:11:10;22.10;99.90
17992;DHT22;9121;50.926;5.340;2023-09-19T13:13:37;22.30;99.90
17992;DHT22;9121;50.926;5.340;2023-09-19T13:16:04;22.30;99.90
17992;DHT22;9121;50.926;5.340;2023-09-19T13:18:45;22.10;99.90
17992;DHT22;9121;50.926;5.340;2023-09-19T13:21:13;21.70;99.90
17992;DHT22;9121;50.926;5.340;2023-09-19T13:23:51;21.60;99.90
17992;DHT22;9121;50.926;5.340;2023-09-19T13:26:18;21.50;99.90
17992;DHT22;9121;50.926;5.340;2023-09-19T13:28:46;21.50;99.90
17992;DHT22;9121;50.926;5.340;2023-09-19T13:31:15;21.60;99.90
17992;DHT22;9121;50.926;5.340;2023-09-19T13:33:46;21.70;99.90
17992;DHT22;9121;50.926;5.340;2023-09-19T13:36:14;21.70;99.90
17992;DHT22;9121;50.926;5.340;2023-09-19T13:38:41;21.50;99.90
17992;DHT22;9121;50.926;5.340;2023-09-19T13:41:11;21.60;99.90
17992;DHT22;9121;50.926;5.340;2023-09-19T13:43:38;21.60;99.90
17992;DHT22;9121;50.926;5.340;2023-09-19T13:46:05;21.60;99.90
17992;DHT22;9121;50.926;5.340;2023-09-19T13:48:37;21.70;99.90
17992;DHT22;9121;50.926;5.340;2023-09-19T13:51:04;21.70;99.90
17992;DHT22;9121;50.926;5.340;2023-09-19T13:53:31;22.10;99.90
17992;DHT22;9121;50.926;5.340;2023-09-19T13:55:58;22.70;99.90
17992;DHT22;9121;50.926;5.340;2023-09-19T13:58:26;23.10;99.90
17992;DHT22;9121;50.926;5.340;2023-09-19T14:00:55;22.70;99.90
17992;DHT22;9121;50.926;5.340;2023-09-19T14:03:23;22.30;99.90
17992;DHT22;9121;50.926;5.340;2023-09-19T14:05:53;21.90;99.90
17992;DHT22;9121;50.926;5.340;2023-09-19T14:08:20;21.70;99.90
17992;DHT22;9121;50.926;5.340;2023-09-19T14:10:49;21.60;99.90
17992;DHT22;9121;50.926;5.340;2023-09-19T14:13:15;21.50;99.90
17992;DHT22;9121;50.926;5.340;2023-09-19T14:15:44;21.20;99.90
17992;DHT22;9121;50.926;5.340;2023-09-19T14:18:10;21.10;99.90
17992;DHT22;9121;50.926;5.340;2023-09-19T14:20:38;20.90;99.90
17992;DHT22;9121;50.926;5.340;2023-09-19T14:23:06;21.00;99.90
17992;DHT22;9121;50.926;5.340;2023-09-19T14:25:34;21.00;99.90
17992;DHT22;9121;50.926;5.340;2023-09-19T14:28:02;20.90;99.90
17992;DHT22;9121;50.926;5.340;2023-09-19T14:30:28;20.80;99.90
17992;DHT22;9121;50.926;5.340;2023-09-19T14:32:57;20.80;99.90
17992;DHT22;9121;50.926;5.340;2023-09-19T14:35:24;20.80;99.90
17992;DHT22;9121;50.926;5.340;2023-09-19T14:37:51;20.70;99.90
17992;DHT22;9121;50.926;5.340;2023-09-19T14:40:18;20.70;99.90
17992;DHT22;9121;50.926;5.340;2023-09-19T14:42:46;20.70;99.90
17992;DHT22;9121;50.926;5.340;2023-09-19T14:45:13;20.80;99.90
17992;DHT22;9121;50.926;5.340;2023-09-19T14:47:43;21.00;99.90
17992;DHT22;9121;50.926;5.340;2023-09-19T14:50:12;21.20;99.90
17992;DHT22;9121;50.926;5.340;2023-09-19T14:52:39;21.30;99.90
17992;DHT22;9121;50.926;5.340;2023-09-19T14:55:06;21.30;99.90
17992;DHT22;9121;50.926;5.340;2023-09-19T14:57:34;21.30;99.90
17992;DHT22;9121;50.926;5.340;2023-09-19T15:00:06;21.30;99.90
17992;DHT22;9121;50.926;5.340;2023-09-19T15:02:37;21.00;99.90
17992;DHT22;9121;50.926;5.340;2023-09-19T15:05:06;21.10;99.90
17992;DHT22;9121;50.926;5.340;2023-09-19T15:07:35;21.20;99.90
17992;DHT22;9121;50.926;5.340;2023-09-19T15:10:03;21.10;99.90
17992;DHT22;9121;50.926;5.340;2023-09-19T15:12:32;21.00;99.90
17992;DHT22;9121;50.926;5.340;2023-09-19T15:15:01;20.90;99.90
17992;DHT22;9121;50.926;5.340;2023-09-19T15:17:30;20.90;99.90
17992;DHT22;9121;50.926;5.340;2023-09-19T15:19:57;20.90;99.90
17992;DHT22;9121;50.926;5.340;2023-09-19T15:22:24;20.90;99.90
17992;DHT22;9121;50.926;5.340;2023-09-19T15:24:53;21.00;99.90
17992;DHT22;9121;50.926;5.340;2023-09-19T15:27:21;21.10;99.90
17992;DHT22;9121;50.926;5.340;2023-09-19T15:29:48;21.00;99.90
17992;DHT22;9121;50.926;5.340;2023-09-19T15:32:15;20.90;99.90
17992;DHT22;9121;50.926;5.340;2023-09-19T15:34:42;21.00;99.90
17992;DHT22;9121;50.926;5.340;2023-09-19T15:37:09;21.10;99.90
17992;DHT22;9121;50.926;5.340;2023-09-19T15:39:36;21.00;99.90
17992;DHT22;9121;50.926;5.340;2023-09-19T15:42:05;20.90;99.90
17992;DHT22;9121;50.926;5.340;2023-09-19T15:44:32;20.90;99.90
17992;DHT22;9121;50.926;5.340;2023-09-19T15:46:59;20.90;99.90
17992;DHT22;9121;50.926;5.340;2023-09-19T15:49:26;20.90;99.90
17992;DHT22;9121;50.926;5.340;2023-09-19T15:51:53;20.70;99.90
17992;DHT22;9121;50.926;5.340;2023-09-19T15:54:20;20.50;99.90
17992;DHT22;9121;50.926;5.340;2023-09-19T15:56:47;20.60;99.90
17992;DHT22;9121;50.926;5.340;2023-09-19T15:59:18;20.50;99.90
17992;DHT22;9121;50.926;5.340;2023-09-19T16:01:45;20.50;99.90
17992;DHT22;9121;50.926;5.340;2023-09-19T16:04:12;20.50;99.90
17992;DHT22;9121;50.926;5.340;2023-09-19T16:06:39;20.50;99.90
17992;DHT22;9121;50.926;5.340;2023-09-19T16:09:06;20.60;99.90